Time;durP1;ratioP1;P1;durP2;ratioP2;P2;SDS_P1;SDS_P2;PMS_P1;PMS_P2;Temp;Humidity;BMP_temperature;BMP_pressure;BME280_temperature;BME280_humidity;BME280_pressure;Samples;Min_cycle;Max_cycle;Signal;HPM_P1;HPM_P2
2024/03/29 00:01:24;;;;;;;5.20;2.13;;;5.90;100.00;;;;;;5094533;27;20493;-70
2024/03/29 00:03:52;;;;;;;6.97;2.95;;;6.00;100.00;;;;;;5061379;28;20056;-70
2024/03/29 00:06:18;;;;;;;3.83;2.20;;;6.00;100.00;;;;;;5062007;28;20052;-70
2024/03/29 00:08:44;;;;;;;5.45;2.13;;;6.00;100.00;;;;;;5061222;28;20151;-70
2024/03/29 00:11:10;;;;;;;2.95;1.90;;;6.00;100.00;;;;;;5061689;28;20058;-70
2024/03/29 00:13:36;;;;;;;5.20;2.20;;;6.00;100.00;;;;;;5061278;28;20071;-70
2024/03/29 00:16:02;;;;;;;3.97;2.40;;;6.00;100.00;;;;;;5061415;28;20084;-70
2024/03/29 00:18:28;;;;;;;5.80;2.10;;;6.10;100.00;;;;;;5068554;28;20060;-70
2024/03/29 00:20:54;;;;;;;4.60;2.65;;;6.10;100.00;;;;;;5062619;28;20060;-70
2024/03/29 00:23:20;;;;;;;5.25;2.05;;;6.10;100.00;;;;;;5062442;28;20086;-70
2024/03/29 00:25:46;;;;;;;7.68;2.58;;;6.10;100.00;;;;;;5062550;28;20465;-70
2024/03/29 00:28:11;;;;;;;3.67;2.17;;;6.10;100.00;;;;;;5061883;28;20057;-70
2024/03/29 00:30:37;;;;;;;5.60;2.28;;;6.10;100.00;;;;;;5080028;28;21234;-70
2024/03/29 00:33:03;;;;;;;4.97;2.17;;;6.10;100.00;;;;;;5061864;28;20215;-70
2024/03/29 00:35:30;;;;;;;5.85;1.98;;;6.10;100.00;;;;;;5063318;28;20064;-70
2024/03/29 00:37:56;;;;;;;3.90;1.90;;;6.10;100.00;;;;;;5062480;28;20070;-70
2024/03/29 00:40:22;;;;;;;4.93;2.10;;;6.20;100.00;;;;;;5046317;28;20076;-70
2024/03/29 00:42:48;;;;;;;6.03;2.20;;;6.20;100.00;;;;;;5062808;28;20044;-71
2024/03/29 00:45:14;;;;;;;5.97;2.30;;;6.20;100.00;;;;;;5059940;28;20105;-70
2024/03/29 00:47:40;;;;;;;2.97;1.70;;;6.20;100.00;;;;;;5061978;28;20049;-72
2024/03/29 00:50:09;;;;;;;4.03;2.25;;;6.20;100.00;;;;;;5062727;28;20070;-72
2024/03/29 00:52:35;;;;;;;6.68;2.17;;;6.10;100.00;;;;;;5062533;28;20052;-70
2024/03/29 00:55:01;;;;;;;3.40;1.73;;;6.00;100.00;;;;;;5071733;28;20097;-70
2024/03/29 00:57:27;;;;;;;4.20;1.88;;;6.00;100.00;;;;;;5062053;28;20077;-70
2024/03/29 00:59:53;;;;;;;4.88;2.17;;;5.90;100.00;;;;;;5061302;28;20052;-70
2024/03/29 01:02:18;;;;;;;4.47;2.10;;;5.90;100.00;;;;;;5062265;28;20107;-70
2024/03/29 01:04:44;;;;;;;4.85;1.83;;;5.90;100.00;;;;;;5062506;28;20047;-70
2024/03/29 01:07:10;;;;;;;2.60;1.73;;;5.90;100.00;;;;;;5067254;28;20044;-70
2024/03/29 01:09:36;;;;;;;4.30;1.92;;;5.90;100.00;;;;;;5070347;28;20133;-70
2024/03/29 01:12:02;;;;;;;4.40;2.30;;;5.80;100.00;;;;;;5045935;28;20063;-70
2024/03/29 01:14:27;;;;;;;4.40;1.90;;;5.70;100.00;;;;;;5071691;28;20056;-71
2024/03/29 01:16:54;;;;;;;4.30;1.65;;;5.70;100.00;;;;;;5067979;28;20060;-72
2024/03/29 01:19:20;;;;;;;5.38;1.70;;;5.70;100.00;;;;;;5061650;28;20661;-72
2024/03/29 01:21:45;;;;;;;3.08;1.75;;;5.60;100.00;;;;;;5061501;28;20044;-73
2024/03/29 01:24:11;;;;;;;3.35;1.95;;;5.60;100.00;;;;;;5061889;28;20653;-72
2024/03/29 01:26:37;;;;;;;5.50;1.45;;;5.60;100.00;;;;;;5068310;28;20492;-72
2024/03/29 01:29:03;;;;;;;5.80;1.40;;;5.60;100.00;;;;;;5061233;28;20130;-72
2024/03/29 01:31:29;;;;;;;2.95;1.80;;;5.60;100.00;;;;;;5062376;28;20052;-70
2024/03/29 01:33:57;;;;;;;3.85;1.65;;;5.70;100.00;;;;;;5061875;28;20481;-70
2024/03/29 01:36:23;;;;;;;6.15;1.90;;;5.70;100.00;;;;;;5076417;28;20064;-70
2024/03/29 01:38:52;;;;;;;4.82;1.42;;;5.70;100.00;;;;;;5061458;28;20060;-70
2024/03/29 01:41:18;;;;;;;6.03;1.67;;;5.70;100.00;;;;;;5061987;28;20182;-70
2024/03/29 01:43:44;;;;;;;4.25;1.40;;;5.70;100.00;;;;;;5045235;28;20407;-70
2024/03/29 01:46:10;;;;;;;3.10;1.42;;;5.70;100.00;;;;;;5062380;28;20052;-70
2024/03/29 01:48:35;;;;;;;2.78;1.30;;;5.70;100.00;;;;;;5064680;28;20063;-70
2024/03/29 01:51:02;;;;;;;2.10;1.20;;;5.70;100.00;;;;;;5074277;28;20087;-70
2024/03/29 01:53:29;;;;;;;7.55;1.77;;;5.70;100.00;;;;;;5071330;28;20059;-70
2024/03/29 01:55:55;;;;;;;2.58;1.52;;;5.60;100.00;;;;;;5064911;28;20049;-70
2024/03/29 01:58:22;;;;;;;2.03;1.30;;;5.60;100.00;;;;;;5071604;28;20052;-70
2024/03/29 02:00:54;;;;;;;2.88;1.33;;;5.50;100.00;;;;;;5081833;28;20787;-70
2024/03/29 02:03:21;;;;;;;2.53;1.42;;;5.50;100.00;;;;;;5066253;28;20061;-70
2024/03/29 02:05:48;;;;;;;5.95;1.45;;;5.40;100.00;;;;;;5049617;28;20741;-70
2024/03/29 02:08:15;;;;;;;2.72;1.30;;;5.40;100.00;;;;;;5083381;27;20055;-70
2024/03/29 02:10:42;;;;;;;5.50;1.55;;;5.40;100.00;;;;;;5064649;28;20056;-70
2024/03/29 02:13:08;;;;;;;3.75;1.00;;;5.40;100.00;;;;;;5072295;28;20066;-70
2024/03/29 02:15:34;;;;;;;3.22;1.20;;;5.30;100.00;;;;;;5065847;28;20048;-70
2024/03/29 02:18:00;;;;;;;4.80;1.23;;;5.30;100.00;;;;;;5065997;28;20596;-70
2024/03/29 02:20:27;;;;;;;3.97;1.42;;;5.30;100.00;;;;;;5063702;28;20052;-70
2024/03/29 02:22:53;;;;;;;3.42;1.15;;;5.30;100.00;;;;;;5065551;28;20060;-70
2024/03/29 02:25:18;;;;;;;3.78;1.10;;;5.30;100.00;;;;;;5064565;28;20097;-72
2024/03/29 02:27:45;;;;;;;5.72;1.33;;;5.20;100.00;;;;;;5099307;27;20071;-72
2024/03/29 02:30:17;;;;;;;2.97;1.13;;;5.20;100.00;;;;;;5064788;28;20672;-72
2024/03/29 02:32:44;;;;;;;4.03;1.00;;;5.20;100.00;;;;;;5065061;28;20052;-72
2024/03/29 02:35:10;;;;;;;6.43;1.17;;;5.20;100.00;;;;;;5072179;28;20064;-72
2024/03/29 02:37:36;;;;;;;1.55;1.00;;;5.10;100.00;;;;;;5067729;28;20560;-72
2024/03/29 02:40:03;;;;;;;4.88;1.60;;;5.10;100.00;;;;;;5064593;28;21377;-73
2024/03/29 02:42:31;;;;;;;2.30;1.10;;;5.10;100.00;;;;;;5064329;28;20052;-72
2024/03/29 02:44:58;;;;;;;3.60;1.20;;;5.00;100.00;;;;;;5064162;28;20063;-72
2024/03/29 02:47:24;;;;;;;3.55;1.40;;;5.00;100.00;;;;;;5048029;28;20400;-72
2024/03/29 02:49:50;;;;;;;2.85;1.42;;;5.00;100.00;;;;;;5064819;28;20106;-72
2024/03/29 02:52:16;;;;;;;3.83;1.50;;;5.00;100.00;;;;;;5064883;28;20087;-70
2024/03/29 02:54:42;;;;;;;1.50;0.90;;;4.90;100.00;;;;;;5064584;28;20745;-70
2024/03/29 02:57:08;;;;;;;3.78;1.58;;;4.90;100.00;;;;;;5065205;28;20053;-70
2024/03/29 02:59:34;;;;;;;4.97;1.25;;;4.90;100.00;;;;;;5064423;28;20062;-70
2024/03/29 03:01:59;;;;;;;3.05;1.40;;;4.90;100.00;;;;;;5070318;28;20812;-70
2024/03/29 03:04:25;;;;;;;4.72;1.40;;;4.90;100.00;;;;;;5081839;28;20071;-70
2024/03/29 03:06:51;;;;;;;3.47;1.13;;;4.90;100.00;;;;;;5071611;28;20075;-70
2024/03/29 03:12:02;;;;;;;5.67;1.50;;;4.90;100.00;;;;;;5064218;28;20456;-72
2024/03/29 03:14:28;;;;;;;8.80;1.67;;;4.90;100.00;;;;;;5065390;28;20098;-72
2024/03/29 03:16:54;;;;;;;4.15;1.58;;;4.90;100.00;;;;;;5064397;28;20520;-72
2024/03/29 03:19:19;;;;;;;6.88;1.33;;;4.90;100.00;;;;;;5081003;27;20172;-72
2024/03/29 03:21:45;;;;;;;4.93;1.38;;;4.90;100.00;;;;;;5045903;28;20492;-72
2024/03/29 03:24:14;;;;;;;2.00;0.98;;;4.90;100.00;;;;;;5064210;28;20058;-72
2024/03/29 03:26:40;;;;;;;4.80;1.27;;;4.80;100.00;;;;;;5064662;28;20060;-72
2024/03/29 03:29:07;;;;;;;2.40;1.27;;;4.80;100.00;;;;;;5097554;27;20049;-72
2024/03/29 03:31:33;;;;;;;9.93;1.45;;;4.80;100.00;;;;;;5088019;27;20412;-72
2024/03/29 03:33:59;;;;;;;1.65;1.15;;;4.90;100.00;;;;;;5047269;28;20053;-72
2024/03/29 03:36:25;;;;;;;6.05;1.08;;;4.90;100.00;;;;;;5069475;28;20142;-72
2024/03/29 03:38:51;;;;;;;3.65;1.00;;;5.00;100.00;;;;;;5063486;28;21115;-72
2024/03/29 03:41:17;;;;;;;3.78;1.10;;;5.00;100.00;;;;;;5064043;28;21348;-72
2024/03/29 03:43:42;;;;;;;5.07;1.17;;;4.90;100.00;;;;;;5064242;28;20063;-72
2024/03/29 03:46:08;;;;;;;3.42;1.05;;;4.90;100.00;;;;;;5063194;28;20117;-72
2024/03/29 03:48:34;;;;;;;4.22;1.48;;;4.80;100.00;;;;;;5062528;28;20473;-70
2024/03/29 03:51:00;;;;;;;1.55;1.00;;;4.80;100.00;;;;;;5063009;28;21039;-70
2024/03/29 03:53:26;;;;;;;3.50;0.93;;;4.80;100.00;;;;;;5072460;28;20412;-70
2024/03/29 03:55:51;;;;;;;5.07;1.42;;;4.70;100.00;;;;;;5080044;28;20113;-70
2024/03/29 03:58:17;;;;;;;2.78;1.13;;;4.70;100.00;;;;;;5069626;28;20061;-71
2024/03/29 04:00:43;;;;;;;2.35;0.75;;;4.70;100.00;;;;;;5062539;28;20060;-72
2024/03/29 04:03:09;;;;;;;1.88;1.20;;;4.60;100.00;;;;;;5063066;28;20079;-72
2024/03/29 04:05:37;;;;;;;2.05;0.95;;;4.60;100.00;;;;;;5063776;28;20052;-72
2024/03/29 04:08:04;;;;;;;1.85;0.80;;;4.50;100.00;;;;;;5063818;28;20177;-72
2024/03/29 04:10:30;;;;;;;3.00;1.30;;;4.50;100.00;;;;;;5046237;28;20093;-72
2024/03/29 04:12:56;;;;;;;2.42;0.90;;;4.50;100.00;;;;;;5070347;28;20052;-72
2024/03/29 04:15:22;;;;;;;2.03;1.00;;;4.50;100.00;;;;;;5064682;28;20177;-72
2024/03/29 04:17:48;;;;;;;8.48;1.27;;;4.50;100.00;;;;;;5080259;28;20085;-70
2024/03/29 04:20:14;;;;;;;3.95;1.10;;;4.50;100.00;;;;;;5062724;28;20522;-70
2024/03/29 04:22:40;;;;;;;1.67;0.98;;;4.50;100.00;;;;;;5070444;28;20052;-70
2024/03/29 04:25:06;;;;;;;2.40;1.00;;;4.40;100.00;;;;;;5062807;28;20052;-70
2024/03/29 04:27:31;;;;;;;4.28;1.10;;;4.50;100.00;;;;;;5046312;28;20064;-70
2024/03/29 04:29:59;;;;;;;1.98;0.90;;;4.50;100.00;;;;;;5063574;28;20048;-70
2024/03/29 04:32:25;;;;;;;2.25;1.05;;;4.50;100.00;;;;;;5098226;27;20059;-70
2024/03/29 04:34:52;;;;;;;3.47;0.98;;;4.50;100.00;;;;;;5080147;27;20060;-70
2024/03/29 04:37:18;;;;;;;5.18;1.30;;;4.60;100.00;;;;;;5063886;28;20082;-70
2024/03/29 04:39:45;;;;;;;3.25;0.90;;;4.60;100.00;;;;;;5062924;28;20055;-70
2024/03/29 04:42:11;;;;;;;2.03;0.80;;;4.50;100.00;;;;;;5063989;28;20801;-71
2024/03/29 04:44:39;;;;;;;5.72;1.30;;;4.60;100.00;;;;;;5071065;28;20056;-72
2024/03/29 04:47:05;;;;;;;5.40;1.20;;;4.60;100.00;;;;;;5081065;27;20051;-72
2024/03/29 04:49:36;;;;;;;5.78;1.05;;;4.60;100.00;;;;;;5063625;28;20059;-72
2024/03/29 04:52:06;;;;;;;6.72;1.58;;;4.60;100.00;;;;;;5062353;28;20056;-72
2024/03/29 04:54:33;;;;;;;5.97;1.33;;;4.70;100.00;;;;;;5059294;28;20392;-72
2024/03/29 04:57:06;;;;;;;3.53;1.10;;;4.80;100.00;;;;;;5064185;28;20056;-72
2024/03/29 04:59:35;;;;;;;5.13;1.23;;;4.80;100.00;;;;;;5079131;28;20114;-72
2024/03/29 05:02:02;;;;;;;5.07;1.27;;;4.80;100.00;;;;;;5078710;28;20048;-70
2024/03/29 05:04:29;;;;;;;6.30;1.33;;;4.80;100.00;;;;;;5080569;28;20063;-70
2024/03/29 05:06:57;;;;;;;8.80;0.90;;;4.90;100.00;;;;;;5064366;28;20052;-70
2024/03/29 05:09:25;;;;;;;6.05;0.95;;;4.90;100.00;;;;;;5047225;28;20052;-71
2024/03/29 05:11:51;;;;;;;5.75;1.02;;;5.00;100.00;;;;;;5061726;28;20109;-70
2024/03/29 05:14:18;;;;;;;6.18;1.23;;;5.00;100.00;;;;;;5061201;28;20052;-70
2024/03/29 05:16:48;;;;;;;2.53;0.88;;;5.00;100.00;;;;;;5062093;28;20061;-72
2024/03/29 05:19:15;;;;;;;3.20;0.80;;;5.10;100.00;;;;;;5068338;28;20060;-70
2024/03/29 05:21:41;;;;;;;1.00;0.65;;;5.20;100.00;;;;;;5062057;28;20067;-71
2024/03/29 05:24:08;;;;;;;9.68;1.77;;;5.20;100.00;;;;;;5070069;28;20657;-70
2024/03/29 05:26:34;;;;;;;6.85;1.00;;;5.30;100.00;;;;;;5099333;27;20053;-73
2024/03/29 05:29:00;;;;;;;5.22;1.10;;;5.30;100.00;;;;;;5065623;28;20048;-73
2024/03/29 05:31:29;;;;;;;9.48;1.05;;;5.40;100.00;;;;;;5065852;28;20121;-73
2024/03/29 05:33:55;;;;;;;7.93;1.40;;;5.40;100.00;;;;;;5047419;28;20060;-68
2024/03/29 05:36:21;;;;;;;6.70;0.98;;;5.50;100.00;;;;;;5096548;27;20075;-70
2024/03/29 05:38:47;;;;;;;6.32;1.05;;;5.50;100.00;;;;;;5063895;28;20052;-69
2024/03/29 05:41:13;;;;;;;5.28;1.30;;;5.50;100.00;;;;;;5059190;28;20048;-71
2024/03/29 05:43:40;;;;;;;4.40;1.08;;;5.50;100.00;;;;;;5062790;28;20056;-71
2024/03/29 05:46:06;;;;;;;5.53;1.23;;;5.60;100.00;;;;;;5069658;28;20055;-71
2024/03/29 05:48:32;;;;;;;7.10;1.20;;;5.70;100.00;;;;;;5046477;28;20052;-71
2024/03/29 05:50:58;;;;;;;1.58;0.80;;;5.70;100.00;;;;;;5064638;28;20063;-71
2024/03/29 05:53:24;;;;;;;3.35;1.02;;;5.80;100.00;;;;;;5064166;28;20067;-71
2024/03/29 05:55:50;;;;;;;4.50;1.25;;;5.80;100.00;;;;;;5064598;28;20056;-71
2024/03/29 05:58:20;;;;;;;5.05;0.80;;;5.80;100.00;;;;;;5062426;28;20957;-71
2024/03/29 06:00:46;;;;;;;3.28;1.02;;;5.90;100.00;;;;;;5071396;28;20048;-71
2024/03/29 06:03:12;;;;;;;3.80;1.10;;;5.90;100.00;;;;;;5062278;28;20059;-71
2024/03/29 06:05:39;;;;;;;10.27;1.25;;;5.90;100.00;;;;;;5061497;28;20049;-71
2024/03/29 06:08:06;;;;;;;3.70;0.98;;;6.00;100.00;;;;;;5079095;28;20631;-71
2024/03/29 06:10:32;;;;;;;3.60;1.10;;;6.00;100.00;;;;;;5061163;28;20871;-71
2024/03/29 06:13:06;;;;;;;5.38;1.30;;;6.10;100.00;;;;;;5063233;28;20048;-71
2024/03/29 06:18:18;;;;;;;5.07;1.88;;;6.20;100.00;;;;;;5070293;28;20052;-71
2024/03/29 06:20:46;;;;;;;7.75;1.13;;;6.30;100.00;;;;;;5063070;28;20060;-71
2024/03/29 06:23:12;;;;;;;6.97;1.40;;;6.30;100.00;;;;;;5062830;28;20588;-71
2024/03/29 06:25:38;;;;;;;4.47;1.38;;;6.40;100.00;;;;;;5069515;28;20106;-71
2024/03/29 06:28:05;;;;;;;6.85;1.10;;;6.40;100.00;;;;;;5066144;28;20097;-71
2024/03/29 06:30:32;;;;;;;4.18;1.20;;;6.50;100.00;;;;;;5097899;27;20052;-71
2024/03/29 06:33:00;;;;;;;4.68;1.35;;;6.50;100.00;;;;;;5062665;28;20056;-71
2024/03/29 06:35:27;;;;;;;5.18;1.10;;;6.60;100.00;;;;;;5063988;28;20758;-71
2024/03/29 06:37:52;;;;;;;2.25;1.00;;;6.60;100.00;;;;;;5073071;28;20053;-71
2024/03/29 06:40:20;;;;;;;4.22;1.20;;;6.70;100.00;;;;;;5064351;28;20060;-71
2024/03/29 06:42:48;;;;;;;6.47;1.50;;;6.70;100.00;;;;;;5045239;28;20043;-72
2024/03/29 06:45:13;;;;;;;4.45;1.55;;;6.70;100.00;;;;;;5067388;28;20118;-72
2024/03/29 06:47:39;;;;;;;5.03;1.10;;;6.80;100.00;;;;;;5062741;28;20110;-72
2024/03/29 06:50:05;;;;;;;14.70;1.48;;;6.90;100.00;;;;;;5063971;28;20481;-72
2024/03/29 06:52:31;;;;;;;5.93;1.23;;;6.90;100.00;;;;;;5061584;28;20053;-71
2024/03/29 06:54:57;;;;;;;5.93;1.17;;;6.90;100.00;;;;;;5068760;28;20743;-72
2024/03/29 06:57:25;;;;;;;6.90;1.48;;;7.00;100.00;;;;;;5078982;27;20071;-71
2024/03/29 06:59:52;;;;;;;3.55;1.02;;;7.00;100.00;;;;;;5061164;28;20052;-71
2024/03/29 07:02:18;;;;;;;5.43;1.27;;;7.00;100.00;;;;;;5062833;28;20053;-71
2024/03/29 07:04:44;;;;;;;3.58;1.23;;;7.10;100.00;;;;;;5062652;28;20048;-71
2024/03/29 07:07:10;;;;;;;3.78;1.08;;;7.10;100.00;;;;;;5063496;28;20056;-71
2024/03/29 07:09:37;;;;;;;4.35;1.35;;;7.20;100.00;;;;;;5061655;28;20056;-71
2024/03/29 07:12:03;;;;;;;8.65;1.30;;;7.20;100.00;;;;;;5094388;27;20087;-70
2024/03/29 07:14:31;;;;;;;4.80;1.35;;;7.30;100.00;;;;;;5062340;28;20064;-72
2024/03/29 07:16:57;;;;;;;4.78;1.05;;;7.30;100.00;;;;;;5061687;28;20056;-70
2024/03/29 07:19:23;;;;;;;3.85;1.30;;;7.40;100.00;;;;;;5063609;28;20052;-70
2024/03/29 07:21:52;;;;;;;3.85;0.93;;;7.50;100.00;;;;;;5062307;28;21803;-70
2024/03/29 07:24:19;;;;;;;4.50;0.88;;;7.50;100.00;;;;;;5046136;28;20063;-70
2024/03/29 07:26:46;;;;;;;7.07;1.52;;;7.50;100.00;;;;;;5077858;28;20048;-69
2024/03/29 07:29:11;;;;;;;3.58;0.90;;;7.60;100.00;;;;;;5071396;28;20057;-70
2024/03/29 07:31:37;;;;;;;3.60;1.15;;;7.60;100.00;;;;;;5062013;28;20106;-70
2024/03/29 07:34:03;;;;;;;5.60;1.10;;;7.70;100.00;;;;;;5062349;28;20716;-70
2024/03/29 07:36:35;;;;;;;3.33;1.10;;;7.80;100.00;;;;;;5062078;28;20052;-73
2024/03/29 07:39:01;;;;;;;4.55;1.08;;;7.80;100.00;;;;;;5063992;28;20056;-71
2024/03/29 07:41:28;;;;;;;8.52;1.23;;;7.90;100.00;;;;;;5079335;27;20055;-73
2024/03/29 07:44:04;;;;;;;6.00;1.02;;;7.90;100.00;;;;;;5062999;28;20800;-69
2024/03/29 07:46:33;;;;;;;2.63;0.85;;;8.00;100.00;;;;;;5069710;28;20421;-69
2024/03/29 07:49:01;;;;;;;3.47;1.20;;;8.00;100.00;;;;;;5062063;28;20051;-70
2024/03/29 07:51:26;;;;;;;5.43;1.20;;;8.00;100.00;;;;;;5061327;28;20060;-71
2024/03/29 07:53:52;;;;;;;5.40;1.20;;;8.10;100.00;;;;;;5070751;28;20804;-69
2024/03/29 07:56:18;;;;;;;3.83;1.27;;;8.10;100.00;;;;;;5062172;28;20056;-70
2024/03/29 07:58:44;;;;;;;4.35;1.10;;;8.20;100.00;;;;;;5068317;28;21401;-69
2024/03/29 08:01:10;;;;;;;3.22;0.88;;;8.20;100.00;;;;;;5061421;28;20692;-69
2024/03/29 08:03:38;;;;;;;6.68;1.10;;;8.30;100.00;;;;;;5062731;28;20181;-70
2024/03/29 08:06:04;;;;;;;5.32;1.00;;;8.40;100.00;;;;;;5061393;28;20062;-69
2024/03/29 08:08:31;;;;;;;6.05;0.85;;;8.40;100.00;;;;;;5062181;28;20056;-70
2024/03/29 08:10:57;;;;;;;2.63;0.85;;;8.40;100.00;;;;;;5075443;27;20075;-71
2024/03/29 08:13:25;;;;;;;3.97;0.85;;;8.40;100.00;;;;;;5052682;28;20048;-71
2024/03/29 08:15:57;;;;;;;5.47;1.25;;;8.50;100.00;;;;;;5060081;28;20074;-71
2024/03/29 08:18:23;;;;;;;2.88;0.93;;;8.60;100.00;;;;;;5060995;28;21346;-72
2024/03/29 08:20:49;;;;;;;8.30;1.50;;;8.60;100.00;;;;;;5058754;28;20082;-75
2024/03/29 08:23:15;;;;;;;2.00;0.80;;;8.60;100.00;;;;;;5059896;28;20045;-75
2024/03/29 08:25:41;;;;;;;3.60;0.95;;;8.60;100.00;;;;;;5068056;28;20056;-76
2024/03/29 08:28:07;;;;;;;1.13;0.70;;;8.60;100.00;;;;;;5061901;28;20861;-75
2024/03/29 08:30:36;;;;;;;11.63;1.00;;;8.60;100.00;;;;;;5071371;28;20052;-77
2024/03/29 08:33:03;;;;;;;3.53;1.10;;;8.70;100.00;;;;;;5062865;28;20079;-75
2024/03/29 08:35:43;;;;;;;9.32;1.33;;;8.70;100.00;;;;;;5091776;27;20075;-75
2024/03/29 08:38:09;;;;;;;2.80;1.02;;;8.70;100.00;;;;;;5067264;28;20048;-70
2024/03/29 08:40:37;;;;;;;4.47;0.77;;;8.70;100.00;;;;;;5060532;28;20063;-70
2024/03/29 08:43:04;;;;;;;2.63;1.00;;;8.70;100.00;;;;;;5058572;28;20041;-70
2024/03/29 08:45:30;;;;;;;10.23;2.55;;;8.80;100.00;;;;;;5061092;28;20070;-71
2024/03/29 08:47:56;;;;;;;6.07;1.58;;;8.80;100.00;;;;;;5067099;28;20052;-71
2024/03/29 08:50:22;;;;;;;3.08;1.40;;;8.90;100.00;;;;;;5060873;28;20302;-71
2024/03/29 08:52:47;;;;;;;6.47;1.98;;;8.90;100.00;;;;;;5061356;28;20087;-70
2024/03/29 08:55:13;;;;;;;2.22;0.90;;;9.00;100.00;;;;;;5060467;28;20052;-70
2024/03/29 08:57:39;;;;;;;3.97;1.20;;;9.00;100.00;;;;;;5061130;28;20688;-70
2024/03/29 09:00:06;;;;;;;3.90;0.95;;;9.00;100.00;;;;;;5060475;28;20056;-70
2024/03/29 09:02:32;;;;;;;2.65;0.80;;;9.00;100.00;;;;;;5061296;28;20049;-70
2024/03/29 09:04:58;;;;;;;3.53;0.90;;;9.10;100.00;;;;;;5059320;28;21440;-70
2024/03/29 09:07:24;;;;;;;2.30;0.80;;;9.20;100.00;;;;;;5075035;28;20101;-70
2024/03/29 09:09:50;;;;;;;2.88;0.95;;;9.20;100.00;;;;;;5056337;28;20056;-74
2024/03/29 09:12:18;;;;;;;2.95;0.95;;;9.40;100.00;;;;;;5060375;28;20057;-81
2024/03/29 09:14:45;;;;;;;2.03;0.80;;;9.50;100.00;;;;;;5094731;27;20060;-72
2024/03/29 09:17:11;;;;;;;2.10;0.90;;;9.60;100.00;;;;;;5067313;28;20136;-75
2024/03/29 09:19:37;;;;;;;3.08;0.98;;;9.70;100.00;;;;;;5060298;28;20055;-74
2024/03/29 09:22:03;;;;;;;2.28;1.15;;;9.80;100.00;;;;;;5070571;28;20048;-74
2024/03/29 09:24:29;;;;;;;10.18;1.45;;;9.80;100.00;;;;;;5058722;28;20131;-74
2024/03/29 09:26:54;;;;;;;5.72;1.13;;;9.90;100.00;;;;;;5061185;28;20062;-74
2024/03/29 09:29:20;;;;;;;11.80;2.13;;;9.90;100.00;;;;;;5059471;28;20095;-74
2024/03/29 09:31:47;;;;;;;9.52;1.48;;;9.90;100.00;;;;;;5062408;28;20051;-73
2024/03/29 09:34:13;;;;;;;7.45;1.38;;;9.90;100.00;;;;;;5055492;28;20524;-74
2024/03/29 09:36:39;;;;;;;5.30;1.10;;;9.90;100.00;;;;;;5064046;28;20053;-74
2024/03/29 09:39:05;;;;;;;10.95;3.28;;;9.90;100.00;;;;;;5075587;28;20055;-74
2024/03/29 09:41:35;;;;;;;8.05;3.10;;;9.90;100.00;;;;;;5059606;28;20044;-74
2024/03/29 09:44:03;;;;;;;8.00;1.17;;;9.90;100.00;;;;;;5059344;28;20056;-73
2024/03/29 09:46:31;;;;;;;1.58;0.80;;;9.90;100.00;;;;;;5043905;28;20060;-74
2024/03/29 09:48:58;;;;;;;3.78;0.70;;;10.00;100.00;;;;;;5061083;28;20060;-74
2024/03/29 09:51:25;;;;;;;3.05;0.90;;;10.00;100.00;;;;;;5059372;28;20064;-74
2024/03/29 09:53:51;;;;;;;3.30;0.70;;;10.00;100.00;;;;;;5060573;28;20048;-74
2024/03/29 09:56:17;;;;;;;3.97;0.80;;;9.90;100.00;;;;;;5061497;28;20121;-74
2024/03/29 09:58:43;;;;;;;3.45;0.80;;;9.80;100.00;;;;;;5061132;28;20052;-74
2024/03/29 10:01:10;;;;;;;5.65;0.90;;;9.70;100.00;;;;;;5060441;28;20052;-74
2024/03/29 10:03:50;;;;;;;4.68;0.98;;;9.70;100.00;;;;;;5061872;28;20057;-74
2024/03/29 10:06:19;;;;;;;4.85;0.73;;;9.50;100.00;;;;;;5062330;28;20056;-74
2024/03/29 10:08:45;;;;;;;3.05;0.88;;;9.40;100.00;;;;;;5096635;27;20060;-74
2024/03/29 10:11:18;;;;;;;2.65;0.60;;;9.30;100.00;;;;;;5069048;28;20072;-74
2024/03/29 10:13:45;;;;;;;1.42;0.70;;;9.30;100.00;;;;;;5049191;28;20166;-74
2024/03/29 10:16:18;;;;;;;5.05;1.08;;;9.20;100.00;;;;;;5084375;28;20097;-74
2024/03/29 10:18:44;;;;;;;4.40;0.93;;;9.20;100.00;;;;;;5066495;28;20074;-74
2024/03/29 10:21:10;;;;;;;7.97;0.68;;;9.30;100.00;;;;;;5063685;28;20079;-73
2024/03/29 10:23:36;;;;;;;7.60;0.50;;;9.30;100.00;;;;;;5063125;28;20052;-73
2024/03/29 10:26:03;;;;;;;3.10;0.50;;;9.40;100.00;;;;;;5064493;28;20828;-73
2024/03/29 10:28:34;;;;;;;3.28;0.68;;;9.50;100.00;;;;;;5063771;28;20772;-73
2024/03/29 10:31:04;;;;;;;2.42;0.70;;;9.60;100.00;;;;;;5097958;27;20063;-73
2024/03/29 10:33:31;;;;;;;5.03;0.50;;;9.80;100.00;;;;;;5063492;28;20051;-74
2024/03/29 10:35:59;;;;;;;1.73;0.63;;;9.80;100.00;;;;;;5064141;28;20060;-73
2024/03/29 10:38:26;;;;;;;2.50;0.80;;;10.00;100.00;;;;;;5047017;28;20685;-74
2024/03/29 10:40:53;;;;;;;1.90;0.70;;;10.20;100.00;;;;;;5063527;28;20070;-74
2024/03/29 10:43:20;;;;;;;2.00;0.68;;;10.30;100.00;;;;;;5097408;27;20143;-73
2024/03/29 10:45:54;;;;;;;6.63;0.90;;;10.40;100.00;;;;;;5063713;28;20810;-74
2024/03/29 10:48:21;;;;;;;1.57;0.47;;;10.60;100.00;;;;;;5047575;28;20052;-75
2024/03/29 10:50:50;;;;;;;4.70;0.68;;;10.80;100.00;;;;;;5072055;28;20679;-79
2024/03/29 10:53:17;;;;;;;1.92;0.52;;;10.80;100.00;;;;;;5058994;28;20052;-77
2024/03/29 10:55:46;;;;;;;2.67;0.70;;;10.90;100.00;;;;;;5066986;28;20424;-77
2024/03/29 10:58:14;;;;;;;2.78;0.70;;;11.00;100.00;;;;;;5068664;28;20056;-77
2024/03/29 11:00:46;;;;;;;1.77;0.85;;;11.20;100.00;;;;;;5070110;28;20044;-77
2024/03/29 11:03:31;;;;;;;6.90;1.40;;;11.40;100.00;;;;;;5075925;28;20052;-77
2024/03/29 11:06:05;;;;;;;6.43;1.05;;;11.50;100.00;;;;;;5069031;28;20694;-77
2024/03/29 11:08:42;;;;;;;7.10;1.55;;;11.40;100.00;;;;;;5067205;28;20047;-77
2024/03/29 11:11:10;;;;;;;4.20;1.40;;;11.20;100.00;;;;;;5084772;27;20057;-77
2024/03/29 11:13:47;;;;;;;4.57;1.17;;;11.00;100.00;;;;;;5074577;28;20052;-77
2024/03/29 11:16:18;;;;;;;4.28;1.05;;;11.00;100.00;;;;;;5052609;28;20109;-77
2024/03/29 11:18:47;;;;;;;8.35;1.70;;;10.90;100.00;;;;;;5058811;28;20063;-77
2024/03/29 11:21:18;;;;;;;2.97;0.68;;;10.90;100.00;;;;;;5067527;28;20516;-77
2024/03/29 11:23:52;;;;;;;2.00;0.68;;;10.80;100.00;;;;;;5067975;28;20070;-77
2024/03/29 11:26:18;;;;;;;6.55;0.88;;;10.70;100.00;;;;;;5070809;28;20053;-77
2024/03/29 11:28:51;;;;;;;6.85;1.13;;;10.70;100.00;;;;;;5084351;27;20607;-77
2024/03/29 11:31:18;;;;;;;1.02;0.60;;;10.70;100.00;;;;;;5074849;28;20533;-77
2024/03/29 11:33:46;;;;;;;9.13;1.20;;;10.70;100.00;;;;;;5104118;27;20052;-78
2024/03/29 11:36:16;;;;;;;8.35;1.10;;;10.70;100.00;;;;;;5089785;27;20121;-77
2024/03/29 11:38:43;;;;;;;1.88;0.90;;;10.80;100.00;;;;;;5070103;28;20055;-78
2024/03/29 11:41:17;;;;;;;2.55;0.80;;;10.90;100.00;;;;;;5067609;28;20460;-77
2024/03/29 11:43:43;;;;;;;4.10;0.90;;;10.90;100.00;;;;;;5102672;27;20058;-78
2024/03/29 11:46:11;;;;;;;11.63;1.10;;;10.90;100.00;;;;;;5069261;28;20052;-77
2024/03/29 11:48:38;;;;;;;5.28;1.23;;;10.90;100.00;;;;;;5071491;28;20059;-78
2024/03/29 11:51:06;;;;;;;3.92;1.10;;;11.10;100.00;;;;;;5070440;28;20858;-78
2024/03/29 11:53:32;;;;;;;2.83;0.75;;;11.10;100.00;;;;;;5083688;28;20056;-78
2024/03/29 11:55:59;;;;;;;5.18;0.93;;;11.20;100.00;;;;;;5055771;28;20817;-78
2024/03/29 11:58:27;;;;;;;1.45;0.65;;;11.20;100.00;;;;;;5069010;28;20052;-78
2024/03/29 12:00:54;;;;;;;2.95;0.95;;;11.30;100.00;;;;;;5101127;27;21386;-78
2024/03/29 12:03:21;;;;;;;0.80;0.60;;;11.30;100.00;;;;;;5070578;28;20087;-78
2024/03/29 12:05:54;;;;;;;2.67;0.75;;;11.40;100.00;;;;;;5051897;28;20063;-78
2024/03/29 12:08:20;;;;;;;1.58;0.73;;;11.50;100.00;;;;;;5085172;27;20052;-77
2024/03/29 12:10:47;;;;;;;1.73;0.70;;;11.50;100.00;;;;;;5085732;27;20105;-78
2024/03/29 12:13:17;;;;;;;2.28;0.75;;;11.40;100.00;;;;;;5076584;28;20507;-78
2024/03/29 12:15:44;;;;;;;4.32;0.82;;;11.50;100.00;;;;;;5075783;28;20048;-78
2024/03/29 12:18:11;;;;;;;2.53;0.90;;;11.50;100.00;;;;;;5052165;28;20105;-77
2024/03/29 12:20:38;;;;;;;3.05;1.33;;;11.40;100.00;;;;;;5104176;27;20149;-77
2024/03/29 12:23:09;;;;;;;1.38;0.93;;;11.40;100.00;;;;;;5081535;28;20049;-76
2024/03/29 12:25:37;;;;;;;1.15;0.70;;;11.50;100.00;;;;;;5067889;28;20044;-77
2024/03/29 12:28:04;;;;;;;1.17;0.80;;;11.40;100.00;;;;;;5065681;28;20052;-76
2024/03/29 12:30:30;;;;;;;3.58;0.90;;;11.20;100.00;;;;;;5074005;28;20052;-77
2024/03/29 12:33:07;;;;;;;4.70;1.00;;;11.10;100.00;;;;;;5065825;28;20682;-77
2024/03/29 12:35:34;;;;;;;1.83;1.00;;;11.10;100.00;;;;;;5066765;28;20195;-77
2024/03/29 12:38:04;;;;;;;4.28;1.02;;;11.20;100.00;;;;;;5053265;28;20537;-77
2024/03/29 12:40:38;;;;;;;3.00;0.82;;;11.20;100.00;;;;;;5059480;28;20048;-75
2024/03/29 12:43:08;;;;;;;2.13;0.70;;;11.30;100.00;;;;;;5052637;28;20048;-81
2024/03/29 12:45:41;;;;;;;3.92;0.95;;;11.40;100.00;;;;;;5048315;28;20056;-77
2024/03/29 12:48:15;;;;;;;3.15;1.25;;;11.40;100.00;;;;;;5045081;28;20843;-76
2024/03/29 12:50:43;;;;;;;3.70;0.90;;;11.50;100.00;;;;;;5061636;28;20520;-77